sensor_id;sensor_type;location;lat;lon;timestamp;P1;durP1;ratioP1;P2;durP2;ratioP2
27187;SDS011;14708;50.872;5.306;2022-09-01T00:02:00;2.65;;;2.13;;
27187;SDS011;14708;50.872;5.306;2022-09-01T00:04:32;2.50;;;2.30;;
27187;SDS011;14708;50.872;5.306;2022-09-01T00:07:00;2.78;;;2.42;;
27187;SDS011;14708;50.872;5.306;2022-09-01T00:09:25;2.60;;;2.10;;
27187;SDS011;14708;50.872;5.306;2022-09-01T00:11:51;2.70;;;2.42;;
27187;SDS011;14708;50.872;5.306;2022-09-01T00:14:21;2.67;;;2.47;;
27187;SDS011;14708;50.872;5.306;2022-09-01T00:16:48;3.03;;;2.72;;
27187;SDS011;14708;50.872;5.306;2022-09-01T00:19:14;3.20;;;2.90;;
27187;SDS011;14708;50.872;5.306;2022-09-01T00:21:41;2.65;;;2.22;;
27187;SDS011;14708;50.872;5.306;2022-09-01T00:24:08;3.25;;;2.28;;
27187;SDS011;14708;50.872;5.306;2022-09-01T00:26:36;2.67;;;2.47;;
27187;SDS011;14708;50.872;5.306;2022-09-01T00:29:02;3.03;;;2.30;;
27187;SDS011;14708;50.872;5.306;2022-09-01T00:31:28;2.45;;;2.25;;
27187;SDS011;14708;50.872;5.306;2022-09-01T00:33:54;2.50;;;2.30;;
27187;SDS011;14708;50.872;5.306;2022-09-01T00:36:20;2.85;;;2.63;;
27187;SDS011;14708;50.872;5.306;2022-09-01T00:38:46;3.45;;;2.65;;
27187;SDS011;14708;50.872;5.306;2022-09-01T00:41:13;3.30;;;3.00;;
27187;SDS011;14708;50.872;5.306;2022-09-01T00:43:45;5.70;;;2.92;;
27187;SDS011;14708;50.872;5.306;2022-09-01T00:46:16;3.63;;;3.08;;
27187;SDS011;14708;50.872;5.306;2022-09-01T00:48:45;2.95;;;2.72;;
27187;SDS011;14708;50.872;5.306;2022-09-01T00:51:15;3.35;;;3.00;;
27187;SDS011;14708;50.872;5.306;2022-09-01T00:53:41;5.25;;;3.05;;
27187;SDS011;14708;50.872;5.306;2022-09-01T00:56:09;3.13;;;2.78;;
27187;SDS011;14708;50.872;5.306;2022-09-01T00:58:36;3.00;;;2.75;;
27187;SDS011;14708;50.872;5.306;2022-09-01T01:01:03;3.28;;;2.97;;
27187;SDS011;14708;50.872;5.306;2022-09-01T01:03:33;3.15;;;2.85;;
27187;SDS011;14708;50.872;5.306;2022-09-01T01:06:00;3.13;;;2.80;;
27187;SDS011;14708;50.872;5.306;2022-09-01T01:08:31;3.03;;;2.60;;
27187;SDS011;14708;50.872;5.306;2022-09-01T01:11:02;2.95;;;2.75;;
27187;SDS011;14708;50.872;5.306;2022-09-01T01:13:49;4.60;;;2.72;;
27187;SDS011;14708;50.872;5.306;2022-09-01T01:16:21;3.67;;;2.88;;
27187;SDS011;14708;50.872;5.306;2022-09-01T01:18:48;2.92;;;2.63;;
27187;SDS011;14708;50.872;5.306;2022-09-01T01:21:34;2.60;;;2.40;;
27187;SDS011;14708;50.872;5.306;2022-09-01T01:24:26;2.83;;;2.47;;
27187;SDS011;14708;50.872;5.306;2022-09-01T01:26:53;2.05;;;1.95;;
27187;SDS011;14708;50.872;5.306;2022-09-01T01:29:24;4.68;;;2.55;;
27187;SDS011;14708;50.872;5.306;2022-09-01T01:31:55;2.95;;;2.75;;
27187;SDS011;14708;50.872;5.306;2022-09-01T01:34:22;2.67;;;2.47;;
27187;SDS011;14708;50.872;5.306;2022-09-01T01:36:48;3.13;;;2.75;;
27187;SDS011;14708;50.872;5.306;2022-09-01T01:39:22;3.28;;;2.60;;
27187;SDS011;14708;50.872;5.306;2022-09-01T01:41:53;3.00;;;2.70;;
27187;SDS011;14708;50.872;5.306;2022-09-01T01:44:23;3.28;;;2.30;;
27187;SDS011;14708;50.872;5.306;2022-09-01T01:46:52;2.90;;;2.53;;
27187;SDS011;14708;50.872;5.306;2022-09-01T01:49:20;2.80;;;2.60;;
27187;SDS011;14708;50.872;5.306;2022-09-01T01:51:49;2.60;;;2.40;;
27187;SDS011;14708;50.872;5.306;2022-09-01T01:54:19;2.60;;;2.35;;
27187;SDS011;14708;50.872;5.306;2022-09-01T01:56:44;2.70;;;2.50;;
27187;SDS011;14708;50.872;5.306;2022-09-01T01:59:10;2.47;;;2.28;;
27187;SDS011;14708;50.872;5.306;2022-09-01T02:01:40;2.85;;;2.65;;
27187;SDS011;14708;50.872;5.306;2022-09-01T02:04:08;2.40;;;2.20;;
27187;SDS011;14708;50.872;5.306;2022-09-01T02:06:35;2.47;;;2.28;;
27187;SDS011;14708;50.872;5.306;2022-09-01T02:09:06;2.70;;;2.50;;
27187;SDS011;14708;50.872;5.306;2022-09-01T02:11:32;2.70;;;2.47;;
27187;SDS011;14708;50.872;5.306;2022-09-01T02:14:02;3.00;;;2.70;;
27187;SDS011;14708;50.872;5.306;2022-09-01T02:16:29;2.58;;;2.38;;
27187;SDS011;14708;50.872;5.306;2022-09-01T02:18:57;2.50;;;2.30;;
27187;SDS011;14708;50.872;5.306;2022-09-01T02:21:24;2.95;;;2.40;;
27187;SDS011;14708;50.872;5.306;2022-09-01T02:23:55;2.35;;;2.15;;
27187;SDS011;14708;50.872;5.306;2022-09-01T02:26:32;3.45;;;2.42;;
27187;SDS011;14708;50.872;5.306;2022-09-01T02:29:02;2.92;;;2.72;;
27187;SDS011;14708;50.872;5.306;2022-09-01T02:31:31;3.17;;;2.17;;
27187;SDS011;14708;50.872;5.306;2022-09-01T02:34:06;2.30;;;2.10;;
27187;SDS011;14708;50.872;5.306;2022-09-01T02:36:38;2.70;;;2.50;;
27187;SDS011;14708;50.872;5.306;2022-09-01T02:39:12;2.83;;;2.58;;
27187;SDS011;14708;50.872;5.306;2022-09-01T02:41:42;3.75;;;2.20;;
27187;SDS011;14708;50.872;5.306;2022-09-01T02:44:08;2.55;;;2.13;;
27187;SDS011;14708;50.872;5.306;2022-09-01T02:46:38;2.38;;;2.17;;
27187;SDS011;14708;50.872;5.306;2022-09-01T02:49:10;2.90;;;2.30;;
27187;SDS011;14708;50.872;5.306;2022-09-01T02:51:45;2.58;;;2.38;;
27187;SDS011;14708;50.872;5.306;2022-09-01T02:54:13;2.55;;;2.35;;
27187;SDS011;14708;50.872;5.306;2022-09-01T02:56:41;2.15;;;2.05;;
27187;SDS011;14708;50.872;5.306;2022-09-01T02:59:12;2.60;;;2.40;;
27187;SDS011;14708;50.872;5.306;2022-09-01T03:01:41;2.67;;;2.30;;
27187;SDS011;14708;50.872;5.306;2022-09-01T03:04:11;2.70;;;2.22;;
27187;SDS011;14708;50.872;5.306;2022-09-01T03:06:37;2.10;;;1.90;;
27187;SDS011;14708;50.872;5.306;2022-09-01T03:09:08;2.50;;;2.30;;
27187;SDS011;14708;50.872;5.306;2022-09-01T03:11:37;2.22;;;2.03;;
27187;SDS011;14708;50.872;5.306;2022-09-01T03:14:05;2.25;;;2.15;;
27187;SDS011;14708;50.872;5.306;2022-09-01T03:16:31;2.50;;;2.30;;
27187;SDS011;14708;50.872;5.306;2022-09-01T03:18:58;2.03;;;1.92;;
27187;SDS011;14708;50.872;5.306;2022-09-01T03:21:24;2.40;;;2.20;;
27187;SDS011;14708;50.872;5.306;2022-09-01T03:23:50;3.03;;;2.70;;
27187;SDS011;14708;50.872;5.306;2022-09-01T03:26:17;2.35;;;2.05;;
27187;SDS011;14708;50.872;5.306;2022-09-01T03:28:45;2.20;;;2.00;;
27187;SDS011;14708;50.872;5.306;2022-09-01T03:31:12;2.40;;;2.20;;
27187;SDS011;14708;50.872;5.306;2022-09-01T03:33:39;2.53;;;2.33;;
27187;SDS011;14708;50.872;5.306;2022-09-01T03:36:06;2.55;;;2.00;;
27187;SDS011;14708;50.872;5.306;2022-09-01T03:38:32;3.67;;;2.30;;
27187;SDS011;14708;50.872;5.306;2022-09-01T03:40:58;2.78;;;2.10;;
27187;SDS011;14708;50.872;5.306;2022-09-01T03:43:28;2.75;;;2.50;;
27187;SDS011;14708;50.872;5.306;2022-09-01T03:45:56;2.22;;;2.03;;
27187;SDS011;14708;50.872;5.306;2022-09-01T03:48:26;2.45;;;2.25;;
27187;SDS011;14708;50.872;5.306;2022-09-01T03:50:53;2.13;;;1.77;;
27187;SDS011;14708;50.872;5.306;2022-09-01T03:53:21;2.53;;;2.13;;
27187;SDS011;14708;50.872;5.306;2022-09-01T03:55:49;2.60;;;2.40;;
27187;SDS011;14708;50.872;5.306;2022-09-01T03:58:16;1.95;;;1.85;;
27187;SDS011;14708;50.872;5.306;2022-09-01T04:00:44;2.38;;;2.17;;
27187;SDS011;14708;50.872;5.306;2022-09-01T04:03:12;2.38;;;2.00;;
27187;SDS011;14708;50.872;5.306;2022-09-01T04:05:43;2.40;;;2.00;;
27187;SDS011;14708;50.872;5.306;2022-09-01T04:08:10;2.47;;;2.28;;
27187;SDS011;14708;50.872;5.306;2022-09-01T04:10:41;2.50;;;2.00;;
27187;SDS011;14708;50.872;5.306;2022-09-01T04:13:11;2.05;;;1.90;;
27187;SDS011;14708;50.872;5.306;2022-09-01T04:15:37;3.33;;;2.20;;
27187;SDS011;14708;50.872;5.306;2022-09-01T04:18:03;2.20;;;2.00;;
27187;SDS011;14708;50.872;5.306;2022-09-01T04:20:51;2.42;;;2.22;;
27187;SDS011;14708;50.872;5.306;2022-09-01T04:23:30;2.25;;;2.05;;
27187;SDS011;14708;50.872;5.306;2022-09-01T04:26:03;2.30;;;2.10;;
27187;SDS011;14708;50.872;5.306;2022-09-01T04:28:34;2.40;;;2.13;;
27187;SDS011;14708;50.872;5.306;2022-09-01T04:31:04;1.77;;;1.63;;
27187;SDS011;14708;50.872;5.306;2022-09-01T04:33:33;1.90;;;1.70;;
27187;SDS011;14708;50.872;5.306;2022-09-01T04:36:20;1.90;;;1.75;;
27187;SDS011;14708;50.872;5.306;2022-09-01T04:38:53;2.10;;;1.90;;
27187;SDS011;14708;50.872;5.306;2022-09-01T04:41:22;1.90;;;1.80;;
27187;SDS011;14708;50.872;5.306;2022-09-01T04:43:50;1.95;;;1.85;;
27187;SDS011;14708;50.872;5.306;2022-09-01T04:46:20;1.65;;;1.55;;
27187;SDS011;14708;50.872;5.306;2022-09-01T04:48:46;2.38;;;1.90;;
27187;SDS011;14708;50.872;5.306;2022-09-01T04:51:12;1.85;;;1.70;;
27187;SDS011;14708;50.872;5.306;2022-09-01T04:53:39;2.17;;;1.92;;
27187;SDS011;14708;50.872;5.306;2022-09-01T04:56:12;3.92;;;2.03;;
27187;SDS011;14708;50.872;5.306;2022-09-01T04:58:45;2.28;;;2.08;;
27187;SDS011;14708;50.872;5.306;2022-09-01T05:01:13;2.00;;;1.80;;
27187;SDS011;14708;50.872;5.306;2022-09-01T05:03:44;2.03;;;1.90;;
27187;SDS011;14708;50.872;5.306;2022-09-01T05:06:16;2.35;;;1.70;;
27187;SDS011;14708;50.872;5.306;2022-09-01T05:08:43;2.08;;;1.92;;
27187;SDS011;14708;50.872;5.306;2022-09-01T05:11:10;2.30;;;2.10;;
27187;SDS011;14708;50.872;5.306;2022-09-01T05:13:40;3.95;;;2.00;;
27187;SDS011;14708;50.872;5.306;2022-09-01T05:16:09;1.73;;;1.63;;
27187;SDS011;14708;50.872;5.306;2022-09-01T05:18:37;2.13;;;1.98;;
27187;SDS011;14708;50.872;5.306;2022-09-01T05:21:05;1.90;;;1.80;;
27187;SDS011;14708;50.872;5.306;2022-09-01T05:23:34;1.85;;;1.75;;
27187;SDS011;14708;50.872;5.306;2022-09-01T05:26:00;1.80;;;1.70;;
27187;SDS011;14708;50.872;5.306;2022-09-01T05:28:28;1.92;;;1.80;;
27187;SDS011;14708;50.872;5.306;2022-09-01T05:30:54;2.28;;;1.85;;
27187;SDS011;14708;50.872;5.306;2022-09-01T05:33:19;1.88;;;1.70;;
27187;SDS011;14708;50.872;5.306;2022-09-01T05:35:52;2.63;;;2.10;;
27187;SDS011;14708;50.872;5.306;2022-09-01T05:38:19;2.00;;;1.90;;
27187;SDS011;14708;50.872;5.306;2022-09-01T05:40:54;1.95;;;1.80;;
27187;SDS011;14708;50.872;5.306;2022-09-01T05:43:21;2.30;;;1.88;;
27187;SDS011;14708;50.872;5.306;2022-09-01T05:45:48;2.70;;;1.75;;
27187;SDS011;14708;50.872;5.306;2022-09-01T05:48:13;1.80;;;1.70;;
27187;SDS011;14708;50.872;5.306;2022-09-01T05:50:45;1.70;;;1.60;;
27187;SDS011;14708;50.872;5.306;2022-09-01T05:53:13;1.70;;;1.60;;
27187;SDS011;14708;50.872;5.306;2022-09-01T05:55:44;1.80;;;1.70;;
27187;SDS011;14708;50.872;5.306;2022-09-01T05:58:13;1.90;;;1.70;;
27187;SDS011;14708;50.872;5.306;2022-09-01T06:00:41;1.92;;;1.70;;
27187;SDS011;14708;50.872;5.306;2022-09-01T06:03:08;1.85;;;1.67;;
27187;SDS011;14708;50.872;5.306;2022-09-01T06:05:35;2.08;;;1.88;;
27187;SDS011;14708;50.872;5.306;2022-09-01T06:08:02;2.00;;;1.83;;
27187;SDS011;14708;50.872;5.306;2022-09-01T06:10:29;1.90;;;1.80;;
27187;SDS011;14708;50.872;5.306;2022-09-01T06:12:56;2.00;;;1.80;;
27187;SDS011;14708;50.872;5.306;2022-09-01T06:15:25;1.85;;;1.75;;
27187;SDS011;14708;50.872;5.306;2022-09-01T06:17:53;2.53;;;1.75;;
27187;SDS011;14708;50.872;5.306;2022-09-01T06:20:19;1.92;;;1.83;;
27187;SDS011;14708;50.872;5.306;2022-09-01T06:22:46;1.80;;;1.70;;
27187;SDS011;14708;50.872;5.306;2022-09-01T06:25:13;2.00;;;1.75;;
27187;SDS011;14708;50.872;5.306;2022-09-01T06:27:41;2.17;;;1.60;;
27187;SDS011;14708;50.872;5.306;2022-09-01T06:30:09;1.95;;;1.70;;
27187;SDS011;14708;50.872;5.306;2022-09-01T06:32:43;1.70;;;1.55;;
27187;SDS011;14708;50.872;5.306;2022-09-01T06:35:09;1.95;;;1.85;;
27187;SDS011;14708;50.872;5.306;2022-09-01T06:37:40;4.03;;;1.75;;
27187;SDS011;14708;50.872;5.306;2022-09-01T06:40:11;3.60;;;1.80;;
27187;SDS011;14708;50.872;5.306;2022-09-01T06:42:47;3.45;;;1.90;;
27187;SDS011;14708;50.872;5.306;2022-09-01T06:45:16;5.35;;;1.73;;
27187;SDS011;14708;50.872;5.306;2022-09-01T06:47:44;4.82;;;2.38;;
27187;SDS011;14708;50.872;5.306;2022-09-01T06:50:12;7.05;;;2.08;;
27187;SDS011;14708;50.872;5.306;2022-09-01T06:52:43;3.97;;;2.10;;
27187;SDS011;14708;50.872;5.306;2022-09-01T06:55:10;6.70;;;2.35;;
27187;SDS011;14708;50.872;5.306;2022-09-01T06:57:38;5.25;;;2.35;;
27187;SDS011;14708;50.872;5.306;2022-09-01T07:00:06;5.85;;;2.20;;
27187;SDS011;14708;50.872;5.306;2022-09-01T07:02:42;3.50;;;2.33;;
27187;SDS011;14708;50.872;5.306;2022-09-01T07:05:09;6.80;;;2.83;;
27187;SDS011;14708;50.872;5.306;2022-09-01T07:07:35;6.95;;;2.50;;
27187;SDS011;14708;50.872;5.306;2022-09-01T07:10:01;9.90;;;2.45;;
27187;SDS011;14708;50.872;5.306;2022-09-01T07:12:28;4.32;;;2.45;;
27187;SDS011;14708;50.872;5.306;2022-09-01T07:14:54;5.57;;;2.47;;
27187;SDS011;14708;50.872;5.306;2022-09-01T07:17:22;5.43;;;2.22;;
27187;SDS011;14708;50.872;5.306;2022-09-01T07:19:48;6.10;;;2.45;;
27187;SDS011;14708;50.872;5.306;2022-09-01T07:22:14;6.03;;;2.47;;
27187;SDS011;14708;50.872;5.306;2022-09-01T07:24:49;7.43;;;2.20;;
27187;SDS011;14708;50.872;5.306;2022-09-01T07:27:23;3.97;;;1.77;;
27187;SDS011;14708;50.872;5.306;2022-09-01T07:29:54;7.72;;;2.30;;
27187;SDS011;14708;50.872;5.306;2022-09-01T07:32:22;8.73;;;2.60;;
27187;SDS011;14708;50.872;5.306;2022-09-01T07:34:48;9.25;;;2.28;;
27187;SDS011;14708;50.872;5.306;2022-09-01T07:37:14;3.10;;;2.00;;
27187;SDS011;14708;50.872;5.306;2022-09-01T07:39:41;7.35;;;2.53;;
27187;SDS011;14708;50.872;5.306;2022-09-01T07:42:10;100.07;;;19.25;;
27187;SDS011;14708;50.872;5.306;2022-09-01T07:44:36;69.40;;;13.05;;
27187;SDS011;14708;50.872;5.306;2022-09-01T07:47:03;39.30;;;7.78;;
27187;SDS011;14708;50.872;5.306;2022-09-01T07:49:33;30.75;;;5.93;;
27187;SDS011;14708;50.872;5.306;2022-09-01T07:52:02;21.40;;;4.60;;
27187;SDS011;14708;50.872;5.306;2022-09-01T07:54:31;15.07;;;4.00;;
27187;SDS011;14708;50.872;5.306;2022-09-01T07:56:58;10.70;;;2.72;;
27187;SDS011;14708;50.872;5.306;2022-09-01T07:59:25;10.13;;;2.78;;
27187;SDS011;14708;50.872;5.306;2022-09-01T08:01:51;6.32;;;2.67;;
27187;SDS011;14708;50.872;5.306;2022-09-01T08:04:17;4.70;;;2.10;;
27187;SDS011;14708;50.872;5.306;2022-09-01T08:06:46;6.72;;;2.72;;
27187;SDS011;14708;50.872;5.306;2022-09-01T08:09:13;9.07;;;2.10;;
27187;SDS011;14708;50.872;5.306;2022-09-01T08:11:39;4.57;;;1.95;;
27187;SDS011;14708;50.872;5.306;2022-09-01T08:14:05;6.10;;;2.30;;
27187;SDS011;14708;50.872;5.306;2022-09-01T08:16:30;11.75;;;2.05;;
27187;SDS011;14708;50.872;5.306;2022-09-01T08:18:57;6.07;;;1.98;;
27187;SDS011;14708;50.872;5.306;2022-09-01T08:21:24;3.97;;;2.13;;
27187;SDS011;14708;50.872;5.306;2022-09-01T08:23:51;6.15;;;2.15;;
27187;SDS011;14708;50.872;5.306;2022-09-01T08:26:25;6.38;;;2.17;;
27187;SDS011;14708;50.872;5.306;2022-09-01T08:28:54;6.28;;;2.10;;
27187;SDS011;14708;50.872;5.306;2022-09-01T08:31:20;9.80;;;2.30;;
27187;SDS011;14708;50.872;5.306;2022-09-01T08:33:47;6.82;;;2.60;;
27187;SDS011;14708;50.872;5.306;2022-09-01T08:36:14;5.88;;;2.28;;
27187;SDS011;14708;50.872;5.306;2022-09-01T08:38:41;5.50;;;2.13;;
27187;SDS011;14708;50.872;5.306;2022-09-01T08:41:15;2.58;;;1.65;;
27187;SDS011;14708;50.872;5.306;2022-09-01T08:46:43;6.18;;;2.63;;
27187;SDS011;14708;50.872;5.306;2022-09-01T08:49:16;6.15;;;2.30;;
27187;SDS011;14708;50.872;5.306;2022-09-01T08:51:51;9.32;;;2.83;;
27187;SDS011;14708;50.872;5.306;2022-09-01T08:57:28;4.53;;;1.60;;
27187;SDS011;14708;50.872;5.306;2022-09-01T08:59:55;10.20;;;2.00;;
27187;SDS011;14708;50.872;5.306;2022-09-01T09:02:43;2.63;;;1.73;;
27187;SDS011;14708;50.872;5.306;2022-09-01T09:08:16;17.05;;;1.92;;
27187;SDS011;14708;50.872;5.306;2022-09-01T09:11:08;4.05;;;1.67;;
27187;SDS011;14708;50.872;5.306;2022-09-01T09:17:01;5.93;;;1.92;;
27187;SDS011;14708;50.872;5.306;2022-09-01T09:22:20;8.57;;;1.88;;
27187;SDS011;14708;50.872;5.306;2022-09-01T09:24:50;2.97;;;1.80;;
27187;SDS011;14708;50.872;5.306;2022-09-01T09:29:45;14.60;;;5.25;;
27187;SDS011;14708;50.872;5.306;2022-09-01T09:32:12;12.77;;;3.67;;
27187;SDS011;14708;50.872;5.306;2022-09-01T09:34:39;9.88;;;2.90;;
27187;SDS011;14708;50.872;5.306;2022-09-01T09:37:16;3.45;;;2.17;;
27187;SDS011;14708;50.872;5.306;2022-09-01T09:42:29;6.35;;;1.83;;
27187;SDS011;14708;50.872;5.306;2022-09-01T09:44:55;5.60;;;1.73;;
27187;SDS011;14708;50.872;5.306;2022-09-01T09:47:34;9.13;;;2.30;;
27187;SDS011;14708;50.872;5.306;2022-09-01T09:52:36;3.88;;;1.70;;
27187;SDS011;14708;50.872;5.306;2022-09-01T09:57:52;5.75;;;1.90;;
27187;SDS011;14708;50.872;5.306;2022-09-01T10:00:25;1.92;;;1.42;;
27187;SDS011;14708;50.872;5.306;2022-09-01T10:02:55;8.80;;;1.92;;
27187;SDS011;14708;50.872;5.306;2022-09-01T10:08:02;6.22;;;1.90;;
27187;SDS011;14708;50.872;5.306;2022-09-01T10:10:39;7.88;;;1.40;;
27187;SDS011;14708;50.872;5.306;2022-09-01T10:13:17;6.75;;;1.60;;
27187;SDS011;14708;50.872;5.306;2022-09-01T10:15:48;4.32;;;1.38;;
27187;SDS011;14708;50.872;5.306;2022-09-01T10:18:17;1.90;;;1.20;;
27187;SDS011;14708;50.872;5.306;2022-09-01T10:23:33;3.00;;;1.40;;
27187;SDS011;14708;50.872;5.306;2022-09-01T10:26:06;5.73;;;1.67;;
27187;SDS011;14708;50.872;5.306;2022-09-01T10:28:51;4.47;;;1.70;;
27187;SDS011;14708;50.872;5.306;2022-09-01T10:31:39;5.22;;;2.00;;
27187;SDS011;14708;50.872;5.306;2022-09-01T10:34:05;9.10;;;1.63;;
27187;SDS011;14708;50.872;5.306;2022-09-01T10:36:36;7.65;;;1.80;;
27187;SDS011;14708;50.872;5.306;2022-09-01T10:39:09;4.65;;;1.30;;
27187;SDS011;14708;50.872;5.306;2022-09-01T10:41:57;5.95;;;1.63;;
27187;SDS011;14708;50.872;5.306;2022-09-01T10:44:23;3.83;;;1.55;;
27187;SDS011;14708;50.872;5.306;2022-09-01T10:47:10;5.47;;;1.48;;
27187;SDS011;14708;50.872;5.306;2022-09-01T10:55:06;4.97;;;1.50;;
27187;SDS011;14708;50.872;5.306;2022-09-01T10:57:43;8.80;;;1.80;;
27187;SDS011;14708;50.872;5.306;2022-09-01T11:02:53;4.07;;;1.70;;
27187;SDS011;14708;50.872;5.306;2022-09-01T11:08:21;2.75;;;1.50;;
27187;SDS011;14708;50.872;5.306;2022-09-01T11:22:02;2.50;;;1.50;;
27187;SDS011;14708;50.872;5.306;2022-09-01T11:24:51;3.47;;;1.20;;
27187;SDS011;14708;50.872;5.306;2022-09-01T11:30:20;3.80;;;1.60;;
27187;SDS011;14708;50.872;5.306;2022-09-01T11:32:51;6.10;;;1.45;;
27187;SDS011;14708;50.872;5.306;2022-09-01T11:35:30;5.03;;;1.08;;
27187;SDS011;14708;50.872;5.306;2022-09-01T11:37:56;5.25;;;1.42;;
27187;SDS011;14708;50.872;5.306;2022-09-01T11:40:29;4.30;;;1.25;;
27187;SDS011;14708;50.872;5.306;2022-09-01T11:42:58;5.70;;;1.63;;
27187;SDS011;14708;50.872;5.306;2022-09-01T11:45:30;4.10;;;1.40;;
27187;SDS011;14708;50.872;5.306;2022-09-01T11:48:01;5.20;;;1.60;;
27187;SDS011;14708;50.872;5.306;2022-09-01T11:50:32;4.07;;;1.20;;
27187;SDS011;14708;50.872;5.306;2022-09-01T11:53:04;6.93;;;1.27;;
27187;SDS011;14708;50.872;5.306;2022-09-01T11:55:33;2.97;;;1.33;;
27187;SDS011;14708;50.872;5.306;2022-09-01T11:58:01;1.70;;;1.17;;
27187;SDS011;14708;50.872;5.306;2022-09-01T12:00:38;2.42;;;1.00;;
27187;SDS011;14708;50.872;5.306;2022-09-01T12:03:18;4.30;;;1.35;;
27187;SDS011;14708;50.872;5.306;2022-09-01T12:05:53;2.97;;;1.10;;
27187;SDS011;14708;50.872;5.306;2022-09-01T12:08:23;2.22;;;1.02;;
27187;SDS011;14708;50.872;5.306;2022-09-01T12:11:08;5.10;;;1.57;;
27187;SDS011;14708;50.872;5.306;2022-09-01T12:13:37;4.38;;;1.00;;
27187;SDS011;14708;50.872;5.306;2022-09-01T12:16:05;7.22;;;1.15;;
27187;SDS011;14708;50.872;5.306;2022-09-01T12:18:34;6.60;;;1.50;;
27187;SDS011;14708;50.872;5.306;2022-09-01T12:21:07;6.10;;;1.23;;
27187;SDS011;14708;50.872;5.306;2022-09-01T12:23:49;3.60;;;1.20;;
27187;SDS011;14708;50.872;5.306;2022-09-01T12:26:17;4.75;;;1.52;;
27187;SDS011;14708;50.872;5.306;2022-09-01T12:28:47;8.70;;;1.98;;
27187;SDS011;14708;50.872;5.306;2022-09-01T12:31:15;7.03;;;1.60;;
27187;SDS011;14708;50.872;5.306;2022-09-01T12:33:43;4.15;;;1.10;;
27187;SDS011;14708;50.872;5.306;2022-09-01T12:38:47;4.50;;;1.40;;
27187;SDS011;14708;50.872;5.306;2022-09-01T12:46:53;5.55;;;1.35;;
27187;SDS011;14708;50.872;5.306;2022-09-01T12:49:22;2.67;;;1.10;;
27187;SDS011;14708;50.872;5.306;2022-09-01T12:52:08;3.58;;;1.23;;
27187;SDS011;14708;50.872;5.306;2022-09-01T12:54:34;6.00;;;1.30;;
27187;SDS011;14708;50.872;5.306;2022-09-01T12:57:00;55.13;;;13.02;;
27187;SDS011;14708;50.872;5.306;2022-09-01T12:59:26;49.30;;;10.63;;
27187;SDS011;14708;50.872;5.306;2022-09-01T13:01:51;37.83;;;9.77;;
27187;SDS011;14708;50.872;5.306;2022-09-01T13:06:53;14.02;;;3.80;;
27187;SDS011;14708;50.872;5.306;2022-09-01T13:09:20;14.13;;;3.73;;
27187;SDS011;14708;50.872;5.306;2022-09-01T13:11:46;8.85;;;2.35;;
27187;SDS011;14708;50.872;5.306;2022-09-01T13:14:13;9.13;;;2.30;;
27187;SDS011;14708;50.872;5.306;2022-09-01T13:16:40;10.43;;;2.45;;
27187;SDS011;14708;50.872;5.306;2022-09-01T13:19:06;5.68;;;1.85;;
27187;SDS011;14708;50.872;5.306;2022-09-01T13:21:33;6.90;;;2.00;;
27187;SDS011;14708;50.872;5.306;2022-09-01T13:24:00;5.35;;;1.90;;
27187;SDS011;14708;50.872;5.306;2022-09-01T13:26:27;4.38;;;1.65;;
27187;SDS011;14708;50.872;5.306;2022-09-01T13:28:55;6.18;;;2.08;;
27187;SDS011;14708;50.872;5.306;2022-09-01T13:31:21;9.95;;;2.00;;
27187;SDS011;14708;50.872;5.306;2022-09-01T13:33:47;9.30;;;2.08;;
27187;SDS011;14708;50.872;5.306;2022-09-01T13:36:13;8.15;;;1.95;;
27187;SDS011;14708;50.872;5.306;2022-09-01T13:38:39;5.88;;;1.73;;
27187;SDS011;14708;50.872;5.306;2022-09-01T13:41:05;5.97;;;1.80;;
27187;SDS011;14708;50.872;5.306;2022-09-01T13:43:31;7.07;;;2.05;;
27187;SDS011;14708;50.872;5.306;2022-09-01T13:45:59;5.50;;;1.83;;
27187;SDS011;14708;50.872;5.306;2022-09-01T13:48:24;5.40;;;1.70;;
27187;SDS011;14708;50.872;5.306;2022-09-01T13:50:52;4.32;;;1.70;;
27187;SDS011;14708;50.872;5.306;2022-09-01T13:53:18;7.05;;;2.60;;
27187;SDS011;14708;50.872;5.306;2022-09-01T13:55:43;8.30;;;2.30;;
27187;SDS011;14708;50.872;5.306;2022-09-01T13:58:09;6.75;;;2.15;;
27187;SDS011;14708;50.872;5.306;2022-09-01T14:00:37;6.43;;;1.98;;
27187;SDS011;14708;50.872;5.306;2022-09-01T14:03:12;4.07;;;2.00;;
27187;SDS011;14708;50.872;5.306;2022-09-01T14:05:42;6.65;;;1.77;;
27187;SDS011;14708;50.872;5.306;2022-09-01T14:08:10;5.13;;;1.80;;
27187;SDS011;14708;50.872;5.306;2022-09-01T14:10:38;5.35;;;1.65;;
27187;SDS011;14708;50.872;5.306;2022-09-01T14:13:07;4.60;;;2.00;;
27187;SDS011;14708;50.872;5.306;2022-09-01T14:15:34;5.63;;;1.50;;
27187;SDS011;14708;50.872;5.306;2022-09-01T14:18:00;5.35;;;1.52;;
27187;SDS011;14708;50.872;5.306;2022-09-01T14:20:27;4.07;;;1.70;;
27187;SDS011;14708;50.872;5.306;2022-09-01T14:25:22;6.88;;;2.20;;
27187;SDS011;14708;50.872;5.306;2022-09-01T14:27:49;6.03;;;1.88;;
27187;SDS011;14708;50.872;5.306;2022-09-01T14:30:21;2.90;;;1.60;;
27187;SDS011;14708;50.872;5.306;2022-09-01T14:32:48;4.28;;;1.63;;
27187;SDS011;14708;50.872;5.306;2022-09-01T14:35:15;4.50;;;2.08;;
27187;SDS011;14708;50.872;5.306;2022-09-01T14:37:42;3.13;;;1.80;;
27187;SDS011;14708;50.872;5.306;2022-09-01T14:40:10;5.75;;;2.00;;
27187;SDS011;14708;50.872;5.306;2022-09-01T14:42:39;5.50;;;1.70;;
27187;SDS011;14708;50.872;5.306;2022-09-01T14:45:07;4.32;;;1.90;;
27187;SDS011;14708;50.872;5.306;2022-09-01T14:47:35;4.75;;;1.95;;
27187;SDS011;14708;50.872;5.306;2022-09-01T14:50:03;3.08;;;1.80;;
27187;SDS011;14708;50.872;5.306;2022-09-01T14:54:57;5.00;;;1.70;;
27187;SDS011;14708;50.872;5.306;2022-09-01T14:57:22;5.10;;;1.70;;
27187;SDS011;14708;50.872;5.306;2022-09-01T14:59:48;2.80;;;1.52;;
27187;SDS011;14708;50.872;5.306;2022-09-01T15:02:14;3.25;;;1.73;;
27187;SDS011;14708;50.872;5.306;2022-09-01T15:04:39;5.45;;;1.92;;
27187;SDS011;14708;50.872;5.306;2022-09-01T15:07:08;7.63;;;2.08;;
27187;SDS011;14708;50.872;5.306;2022-09-01T15:09:34;12.35;;;4.28;;
27187;SDS011;14708;50.872;5.306;2022-09-01T15:12:01;14.90;;;4.90;;
27187;SDS011;14708;50.872;5.306;2022-09-01T15:14:26;7.32;;;2.88;;
27187;SDS011;14708;50.872;5.306;2022-09-01T15:16:52;8.13;;;3.20;;
27187;SDS011;14708;50.872;5.306;2022-09-01T15:19:18;6.25;;;2.75;;
27187;SDS011;14708;50.872;5.306;2022-09-01T15:21:44;5.28;;;1.83;;
27187;SDS011;14708;50.872;5.306;2022-09-01T15:24:10;9.18;;;2.33;;
27187;SDS011;14708;50.872;5.306;2022-09-01T15:26:37;6.20;;;2.17;;
27187;SDS011;14708;50.872;5.306;2022-09-01T15:29:04;5.35;;;1.90;;
27187;SDS011;14708;50.872;5.306;2022-09-01T15:31:33;6.03;;;2.20;;
27187;SDS011;14708;50.872;5.306;2022-09-01T15:34:00;8.75;;;2.42;;
27187;SDS011;14708;50.872;5.306;2022-09-01T15:36:27;5.63;;;2.60;;
27187;SDS011;14708;50.872;5.306;2022-09-01T15:38:54;7.18;;;2.40;;
27187;SDS011;14708;50.872;5.306;2022-09-01T15:41:22;4.07;;;2.00;;
27187;SDS011;14708;50.872;5.306;2022-09-01T15:43:57;6.38;;;1.60;;
27187;SDS011;14708;50.872;5.306;2022-09-01T15:46:23;5.78;;;1.85;;
27187;SDS011;14708;50.872;5.306;2022-09-01T15:48:57;4.72;;;2.28;;
27187;SDS011;14708;50.872;5.306;2022-09-01T15:53:56;4.60;;;2.08;;
27187;SDS011;14708;50.872;5.306;2022-09-01T15:56:24;4.63;;;1.92;;
27187;SDS011;14708;50.872;5.306;2022-09-01T15:58:50;4.78;;;2.15;;
27187;SDS011;14708;50.872;5.306;2022-09-01T16:01:17;4.53;;;2.30;;
27187;SDS011;14708;50.872;5.306;2022-09-01T16:03:43;5.05;;;2.10;;
27187;SDS011;14708;50.872;5.306;2022-09-01T16:06:09;6.85;;;2.30;;
27187;SDS011;14708;50.872;5.306;2022-09-01T16:08:38;6.77;;;1.87;;
27187;SDS011;14708;50.872;5.306;2022-09-01T16:11:05;7.78;;;2.50;;
27187;SDS011;14708;50.872;5.306;2022-09-01T16:13:42;4.95;;;1.92;;